createdAt,value
2023-02-14T00:02:41.088Z,29.00
2023-02-14T00:03:42.586Z,29.92
2023-02-14T00:04:45.882Z,28.92
2023-02-14T00:05:47.510Z,31.42
2023-02-14T00:06:49.407Z,27.80
2023-02-14T00:07:50.919Z,30.77
2023-02-14T00:08:54.136Z,29.08
2023-02-14T00:09:55.567Z,29.90
2023-02-14T00:10:57.296Z,27.83
2023-02-14T00:11:59.030Z,28.48
2023-02-14T00:13:00.487Z,27.67
2023-02-14T00:14:20.477Z,29.38
2023-02-14T00:15:25.363Z,27.50
2023-02-14T00:16:27.171Z,30.02
2023-02-14T00:17:28.687Z,23.88
2023-02-14T00:18:48.744Z,28.05
2023-02-14T00:19:50.539Z,29.13
2023-02-14T00:20:52.046Z,31.80
2023-02-14T00:21:53.772Z,31.85
2023-02-14T00:22:55.251Z,27.73
2023-02-14T00:23:56.664Z,28.17
2023-02-14T00:24:58.142Z,25.80
2023-02-14T00:25:59.555Z,28.95
2023-02-14T00:27:01.708Z,29.88
2023-02-14T00:28:03.129Z,29.20
2023-02-14T00:29:09.325Z,28.17
2023-02-14T00:30:13.308Z,27.58
2023-02-14T00:31:14.870Z,28.75
2023-02-14T00:32:16.381Z,32.05
2023-02-14T00:33:17.813Z,29.17
2023-02-14T00:34:19.898Z,30.88
2023-02-14T00:35:21.353Z,27.15
2023-02-14T00:36:22.846Z,29.17
2023-02-14T00:37:25.111Z,28.85
2023-02-14T00:38:26.523Z,28.58
2023-02-14T00:39:27.962Z,30.83
2023-02-14T00:40:29.542Z,31.45
2023-02-14T00:41:31.239Z,28.90
2023-02-14T00:42:32.730Z,29.92
2023-02-14T00:43:34.219Z,29.38
2023-02-14T00:44:35.645Z,28.75
2023-02-14T00:45:37.095Z,28.33
2023-02-14T00:46:38.725Z,29.48
2023-02-14T00:47:40.209Z,29.88
2023-02-14T00:48:42.054Z,26.80
2023-02-14T00:49:43.534Z,30.23
2023-02-14T00:50:46.263Z,29.92
2023-02-14T00:51:47.735Z,26.25
2023-02-14T00:52:49.176Z,28.55
2023-02-14T00:53:51.216Z,30.40
2023-02-14T00:54:52.640Z,28.52
2023-02-14T00:55:54.057Z,27.45
2023-02-14T00:56:55.483Z,28.25
2023-02-14T00:57:57.474Z,28.60
2023-02-14T00:58:59.252Z,29.13
2023-02-14T01:00:00.696Z,29.40
2023-02-14T01:01:02.645Z,29.70
2023-02-14T01:02:04.620Z,27.45
2023-02-14T01:03:06.061Z,29.42
2023-02-14T01:04:07.927Z,29.23
2023-02-14T01:05:09.376Z,30.42
2023-02-14T01:06:10.905Z,26.55
2023-02-14T01:07:12.463Z,27.45
2023-02-14T01:08:14.537Z,31.08
2023-02-14T01:09:15.979Z,28.92
2023-02-14T01:10:17.657Z,31.77
2023-02-14T01:11:21.949Z,28.40
2023-02-14T01:12:23.374Z,30.17
2023-02-14T01:13:25.206Z,28.88
2023-02-14T01:14:26.621Z,26.83
2023-02-14T01:15:29.045Z,29.98
2023-02-14T01:16:30.888Z,29.35
2023-02-14T01:17:32.429Z,30.15
2023-02-14T01:18:34.827Z,27.67
2023-02-14T01:19:36.691Z,28.13
2023-02-14T01:20:38.598Z,28.60
2023-02-14T01:21:40.120Z,29.77
2023-02-14T01:22:42.652Z,31.40
2023-02-14T01:23:45.114Z,30.48
2023-02-14T01:24:46.537Z,30.60
2023-02-14T01:25:48.002Z,29.45
2023-02-14T01:26:49.463Z,31.85
2023-02-14T01:27:51.326Z,29.83
2023-02-14T01:28:53.436Z,26.88
2023-02-14T01:29:54.868Z,33.13
2023-02-14T01:30:56.295Z,29.45
2023-02-14T01:31:57.776Z,29.65
2023-02-14T01:32:59.350Z,29.13
2023-02-14T01:34:01.653Z,30.60
2023-02-14T01:35:03.286Z,31.40
2023-02-14T01:36:05.041Z,29.58
2023-02-14T01:37:06.446Z,28.08
2023-02-14T01:38:07.845Z,30.67
2023-02-14T01:39:14.667Z,28.73
2023-02-14T01:40:16.307Z,27.98
2023-02-14T01:41:18.365Z,28.45
2023-02-14T01:42:19.888Z,32.38
2023-02-14T01:43:21.343Z,29.40
2023-02-14T01:44:25.776Z,32.00
2023-02-14T01:45:28.225Z,32.42
2023-02-14T01:46:32.972Z,30.48
2023-02-14T01:47:40.278Z,32.42
2023-02-14T01:48:41.853Z,28.98
2023-02-14T01:49:52.142Z,29.27
2023-02-14T01:50:54.791Z,32.17
2023-02-14T01:52:04.438Z,29.70
2023-02-14T01:53:16.051Z,28.88
2023-02-14T01:54:20.039Z,30.80
2023-02-14T01:55:25.362Z,30.88
2023-02-14T01:56:41.068Z,30.95
2023-02-14T01:58:04.009Z,30.55
2023-02-14T01:59:11.653Z,30.05
2023-02-14T02:00:32.358Z,30.80
2023-02-14T02:01:34.051Z,33.83
2023-02-14T02:02:35.762Z,29.25
2023-02-14T02:03:41.816Z,30.63
2023-02-14T02:04:46.930Z,29.45
2023-02-14T02:05:52.152Z,31.30
2023-02-14T02:07:00.139Z,32.25
2023-02-14T02:08:01.971Z,29.00
2023-02-14T02:09:20.413Z,31.30
2023-02-14T02:10:21.994Z,28.77
2023-02-14T02:11:23.526Z,29.00
2023-02-14T02:12:25.004Z,28.33
2023-02-14T02:13:26.466Z,29.45
2023-02-14T02:14:28.529Z,28.40
2023-02-14T02:15:35.720Z,30.80
2023-02-14T02:16:52.222Z,29.63
2023-02-14T02:18:19.141Z,31.23
2023-02-14T02:19:58.614Z,30.88
2023-02-14T02:21:37.792Z,30.00
2023-02-14T02:23:18.104Z,29.40
2023-02-14T02:24:35.187Z,29.23
2023-02-14T02:25:58.466Z,30.40
2023-02-14T02:27:25.800Z,30.98
2023-02-14T02:29:01.738Z,29.50
2023-02-14T02:30:28.282Z,34.03
2023-02-14T02:31:48.300Z,33.40
2023-02-14T02:32:49.712Z,30.60
2023-02-14T02:34:27.196Z,32.05
2023-02-14T02:35:43.700Z,32.83
2023-02-14T02:37:03.811Z,30.60
2023-02-14T02:38:50.352Z,30.15
2023-02-14T02:40:04.792Z,30.70
2023-02-14T02:41:18.367Z,34.33
2023-02-14T02:42:50.621Z,30.83
2023-02-14T02:44:10.685Z,32.67
2023-02-14T02:45:35.883Z,29.50
2023-02-14T02:46:49.292Z,29.20
2023-02-14T02:47:53.687Z,32.15
2023-02-14T02:49:05.072Z,30.10
2023-02-14T02:50:44.278Z,32.05
2023-02-14T02:52:12.897Z,34.08
2023-02-14T02:54:01.479Z,29.60
2023-02-14T02:55:11.656Z,30.65
2023-02-14T02:56:43.019Z,32.45
2023-02-14T02:57:46.871Z,29.95
2023-02-14T02:58:57.223Z,30.83
2023-02-14T02:59:59.763Z,30.27
2023-02-14T03:01:06.706Z,30.95
2023-02-14T03:02:18.430Z,27.60
2023-02-14T03:03:42.362Z,31.30
2023-02-14T03:04:57.032Z,32.25
2023-02-14T03:05:58.861Z,29.27
2023-02-14T03:07:00.716Z,30.38
2023-02-14T03:08:03.954Z,30.52
2023-02-14T03:09:33.083Z,29.65
2023-02-14T03:10:38.126Z,30.92
2023-02-14T03:12:05.447Z,30.10
2023-02-14T03:13:25.457Z,32.13
2023-02-14T03:14:39.637Z,31.73
2023-02-14T03:15:52.583Z,30.92
2023-02-14T03:17:05.409Z,32.88
2023-02-14T03:18:43.789Z,32.53
2023-02-14T03:20:17.878Z,31.25
2023-02-14T03:21:31.428Z,33.45
2023-02-14T03:22:54.040Z,30.00
2023-02-14T03:24:33.230Z,32.03
2023-02-14T03:25:49.648Z,33.53
2023-02-14T03:27:06.828Z,32.70
2023-02-14T03:28:22.797Z,31.60
2023-02-14T03:29:37.105Z,30.70
2023-02-14T03:30:50.871Z,31.67
2023-02-14T03:32:31.305Z,31.80
2023-02-14T03:33:44.801Z,29.52
2023-02-14T03:35:04.275Z,29.60
2023-02-14T03:36:36.283Z,30.98
2023-02-14T03:38:00.483Z,32.45
2023-02-14T03:39:08.576Z,32.53
2023-02-14T03:40:25.138Z,32.67
2023-02-14T03:41:31.606Z,31.02
2023-02-14T03:42:56.213Z,32.92
2023-02-14T03:44:00.869Z,32.40
2023-02-14T03:45:06.216Z,33.72
2023-02-14T03:46:15.754Z,32.08
2023-02-14T03:47:22.369Z,33.40
2023-02-14T03:48:27.340Z,34.22
2023-02-14T03:49:33.966Z,35.03
2023-02-14T03:50:38.174Z,35.25
2023-02-14T03:51:42.630Z,34.13
2023-02-14T03:52:45.770Z,32.03
2023-02-14T03:53:52.085Z,31.55
2023-02-14T03:54:57.524Z,31.42
2023-02-14T03:56:27.125Z,32.45
2023-02-14T03:57:40.456Z,32.85
2023-02-14T03:58:47.162Z,33.85
2023-02-14T03:59:49.011Z,33.10
2023-02-14T04:00:55.072Z,32.13
2023-02-14T04:02:15.341Z,41.90
2023-02-14T04:03:18.673Z,43.30
2023-02-14T04:04:24.126Z,35.55
2023-02-14T04:05:27.898Z,46.00
2023-02-14T04:06:29.443Z,49.55
2023-02-14T04:07:30.929Z,43.83
2023-02-14T04:08:32.465Z,38.90
2023-02-14T04:09:33.874Z,36.95
2023-02-14T04:10:35.666Z,40.22
2023-02-14T04:11:39.026Z,41.40
2023-02-14T04:12:40.550Z,39.13
2023-02-14T04:13:41.997Z,42.75
2023-02-14T04:14:43.478Z,42.03
2023-02-14T04:15:45.070Z,44.50
2023-02-14T04:17:05.156Z,40.35
2023-02-14T04:18:25.100Z,38.60
2023-02-14T04:19:26.642Z,39.08
2023-02-14T04:20:28.878Z,38.80
2023-02-14T04:21:30.330Z,40.45
2023-02-14T04:22:31.762Z,39.13
2023-02-14T04:23:33.216Z,44.65
2023-02-14T04:24:34.653Z,40.75
2023-02-14T04:25:36.261Z,39.45
2023-02-14T04:26:37.732Z,40.40
2023-02-14T04:27:39.341Z,41.72
2023-02-14T04:28:40.817Z,40.30
2023-02-14T04:29:49.882Z,39.03
2023-02-14T04:30:51.412Z,39.38
2023-02-14T04:31:52.982Z,40.35
2023-02-14T04:32:54.504Z,40.95
2023-02-14T04:33:56.033Z,40.45
2023-02-14T04:34:57.444Z,39.80
2023-02-14T04:36:00.129Z,36.90
2023-02-14T04:37:01.741Z,36.58
2023-02-14T04:38:04.186Z,38.15
2023-02-14T04:39:05.611Z,40.30
2023-02-14T04:40:07.727Z,39.00
2023-02-14T04:41:09.197Z,35.78
2023-02-14T04:42:10.906Z,39.63
2023-02-14T04:43:12.371Z,35.97
2023-02-14T04:44:14.181Z,38.05
2023-02-14T04:45:15.704Z,38.55
2023-02-14T04:46:17.208Z,38.60
2023-02-14T04:47:18.809Z,38.60
2023-02-14T04:48:20.349Z,39.65
2023-02-14T04:49:21.969Z,41.08
2023-02-14T04:50:23.532Z,39.05
2023-02-14T04:51:27.354Z,37.58
2023-02-14T04:52:29.155Z,42.95
2023-02-14T04:53:30.584Z,36.50
2023-02-14T04:54:33.315Z,41.20
2023-02-14T04:55:34.758Z,41.05
2023-02-14T04:56:36.240Z,40.30
2023-02-14T04:57:37.815Z,39.60
2023-02-14T04:58:39.303Z,40.55
2023-02-14T04:59:40.718Z,39.50
2023-02-14T05:00:42.168Z,41.88
2023-02-14T05:01:43.679Z,38.90
2023-02-14T05:02:45.208Z,37.40
2023-02-14T05:03:46.746Z,39.75
2023-02-14T05:04:49.760Z,39.85
2023-02-14T05:05:51.622Z,41.60
2023-02-14T05:06:53.114Z,39.63
2023-02-14T05:07:54.531Z,40.05
2023-02-14T05:08:56.755Z,42.53
2023-02-14T05:09:58.408Z,40.17
2023-02-14T05:11:00.136Z,37.13
2023-02-14T05:12:01.806Z,41.20
2023-02-14T05:13:03.304Z,42.50
2023-02-14T05:14:04.933Z,41.40
2023-02-14T05:15:06.626Z,40.08
2023-02-14T05:16:08.182Z,38.22
2023-02-14T05:17:09.856Z,38.78
2023-02-14T05:18:11.258Z,38.55
2023-02-14T05:19:13.232Z,36.40
2023-02-14T05:20:14.887Z,39.08
2023-02-14T05:21:16.339Z,37.22
2023-02-14T05:22:18.608Z,39.67
2023-02-14T05:23:21.257Z,38.33
2023-02-14T05:24:22.751Z,35.67
2023-02-14T05:25:24.194Z,36.30
2023-02-14T05:26:25.811Z,38.53
2023-02-14T05:27:27.608Z,36.53
2023-02-14T05:28:29.050Z,37.72
2023-02-14T05:29:30.469Z,39.25
2023-02-14T05:30:32.361Z,40.38
2023-02-14T05:31:33.946Z,35.97
2023-02-14T05:32:35.512Z,41.25
2023-02-14T05:33:36.990Z,40.40
2023-02-14T05:34:38.408Z,39.53
2023-02-14T05:35:39.852Z,42.30
2023-02-14T05:36:41.285Z,40.35
2023-02-14T05:37:42.717Z,40.22
2023-02-14T05:38:44.436Z,38.55
2023-02-14T05:39:45.904Z,39.65
2023-02-14T05:40:47.362Z,42.42
2023-02-14T05:41:48.781Z,39.45
2023-02-14T05:42:52.309Z,41.88
2023-02-14T05:43:53.752Z,39.92
2023-02-14T05:44:55.186Z,41.63
2023-02-14T05:45:57.817Z,42.42
2023-02-14T05:46:59.674Z,42.83
2023-02-14T05:48:01.467Z,38.40
2023-02-14T05:49:03.502Z,40.97
2023-02-14T05:50:06.269Z,42.25
2023-02-14T05:51:10.611Z,42.15
2023-02-14T05:52:12.063Z,39.20
2023-02-14T05:53:13.973Z,39.88
2023-02-14T05:54:15.619Z,36.05
2023-02-14T05:55:17.185Z,38.13
2023-02-14T05:56:18.600Z,41.97
2023-02-14T05:57:20.118Z,37.67
2023-02-14T05:58:21.520Z,38.58
2023-02-14T05:59:22.960Z,42.55
2023-02-14T06:00:24.922Z,37.65
2023-02-14T06:01:26.383Z,38.22
2023-02-14T06:02:27.881Z,39.25
2023-02-14T06:03:29.333Z,38.53
2023-02-14T06:04:30.816Z,38.67
2023-02-14T06:05:32.251Z,38.33
2023-02-14T06:06:36.283Z,37.47
2023-02-14T06:07:38.151Z,38.20
2023-02-14T06:08:39.604Z,35.03
2023-02-14T06:09:41.055Z,38.13
2023-02-14T06:10:42.582Z,36.47
2023-02-14T06:11:44.414Z,35.42
2023-02-14T06:12:48.318Z,35.83
2023-02-14T06:13:49.814Z,37.10
2023-02-14T06:14:51.243Z,37.10
2023-02-14T06:15:52.687Z,38.47
2023-02-14T06:16:54.364Z,39.88
2023-02-14T06:17:57.025Z,37.65
2023-02-14T06:18:58.478Z,36.60
2023-02-14T06:19:59.909Z,38.25
2023-02-14T06:21:01.637Z,37.90
2023-02-14T06:22:04.028Z,35.13
2023-02-14T06:23:05.516Z,38.33
2023-02-14T06:24:07.082Z,36.72
2023-02-14T06:25:08.490Z,40.38
2023-02-14T06:26:09.979Z,36.38
2023-02-14T06:27:11.416Z,37.30
2023-02-14T06:28:12.880Z,34.88
2023-02-14T06:29:17.375Z,37.58
2023-02-14T06:30:19.246Z,37.47
2023-02-14T06:31:21.326Z,36.97
2023-02-14T06:32:23.211Z,40.47
2023-02-14T06:33:24.709Z,35.17
2023-02-14T06:34:26.194Z,37.00
2023-02-14T06:35:27.654Z,37.33
2023-02-14T06:36:29.397Z,39.55
2023-02-14T06:37:33.637Z,34.40
2023-02-14T06:38:35.088Z,40.88
2023-02-14T06:39:36.603Z,39.03
2023-02-14T06:40:38.028Z,40.28
2023-02-14T06:41:39.473Z,35.42
2023-02-14T06:42:41.002Z,42.05
2023-02-14T06:43:43.650Z,37.85
2023-02-14T06:44:45.107Z,40.53
2023-02-14T06:45:46.916Z,33.90
2023-02-14T06:46:48.381Z,38.63
2023-02-14T06:47:49.858Z,36.97
2023-02-14T06:48:51.342Z,37.75
2023-02-14T06:49:52.764Z,38.05
2023-02-14T06:50:54.498Z,36.38
2023-02-14T06:51:55.978Z,39.33
2023-02-14T06:52:57.456Z,38.92
2023-02-14T06:53:58.896Z,37.70
2023-02-14T06:55:00.360Z,38.47
2023-02-14T06:56:02.202Z,37.45
2023-02-14T06:57:03.934Z,38.53
2023-02-14T06:58:05.432Z,35.00
2023-02-14T06:59:06.951Z,34.70
2023-02-14T07:00:10.259Z,37.20
2023-02-14T07:01:12.144Z,35.45
2023-02-14T07:02:13.673Z,37.97
2023-02-14T07:03:15.786Z,40.13
2023-02-14T07:04:17.786Z,37.10
2023-02-14T07:05:19.318Z,38.97
2023-02-14T07:06:21.211Z,35.72
2023-02-14T07:07:22.629Z,41.13
2023-02-14T07:08:26.160Z,38.22
2023-02-14T07:09:27.738Z,39.08
2023-02-14T07:10:29.171Z,38.55
2023-02-14T07:11:30.656Z,43.33
2023-02-14T07:12:32.157Z,41.05
2023-02-14T07:13:33.594Z,33.30
2023-02-14T07:14:35.108Z,39.30
2023-02-14T07:15:36.560Z,36.97
2023-02-14T07:16:38.017Z,40.05
2023-02-14T07:17:39.835Z,42.00
2023-02-14T07:18:41.386Z,35.88
2023-02-14T07:19:42.791Z,39.60
2023-02-14T07:20:45.077Z,38.65
2023-02-14T07:21:46.492Z,38.72
2023-02-14T07:22:48.012Z,39.83
2023-02-14T07:23:50.173Z,41.78
2023-02-14T07:24:51.627Z,42.53
2023-02-14T07:25:53.117Z,42.30
2023-02-14T07:26:54.584Z,40.63
2023-02-14T07:27:56.002Z,39.15
2023-02-14T07:28:57.459Z,42.28
2023-02-14T07:29:59.291Z,37.97
2023-02-14T07:31:01.824Z,39.92
2023-02-14T07:32:03.733Z,40.08
2023-02-14T07:33:05.409Z,40.30
2023-02-14T07:34:06.829Z,42.20
2023-02-14T07:35:08.814Z,45.38
2023-02-14T07:36:10.516Z,38.00
2023-02-14T07:37:11.905Z,40.90
2023-02-14T07:38:13.378Z,37.60
2023-02-14T07:39:14.812Z,39.38
2023-02-14T07:40:16.479Z,39.58
2023-02-14T07:41:17.985Z,35.45
2023-02-14T07:42:19.453Z,37.75
2023-02-14T07:43:20.870Z,39.80
2023-02-14T07:44:22.485Z,36.60
2023-02-14T07:45:25.116Z,34.33
2023-02-14T07:46:26.653Z,37.58
2023-02-14T07:47:28.162Z,38.75
2023-02-14T07:48:31.945Z,38.80
2023-02-14T07:49:35.892Z,39.15
2023-02-14T07:50:37.693Z,41.78
2023-02-14T07:51:39.305Z,39.20
2023-02-14T07:52:40.739Z,41.13
2023-02-14T07:53:42.217Z,39.60
2023-02-14T07:54:43.755Z,38.50
2023-02-14T07:55:50.347Z,38.08
2023-02-14T07:56:51.861Z,39.85
2023-02-14T07:57:53.329Z,36.55
2023-02-14T07:58:54.922Z,37.67
2023-02-14T07:59:56.367Z,37.25
2023-02-14T08:00:58.291Z,35.17
2023-02-14T08:01:59.977Z,32.53
2023-02-14T08:03:01.509Z,35.35
2023-02-14T08:04:03.112Z,36.88
2023-02-14T08:05:04.978Z,36.75
2023-02-14T08:06:06.479Z,33.58
2023-02-14T08:07:07.980Z,36.17
2023-02-14T08:08:09.529Z,37.33
2023-02-14T08:09:11.240Z,36.40
2023-02-14T08:10:13.272Z,38.22
2023-02-14T08:11:35.282Z,38.72
2023-02-14T08:12:55.350Z,36.55
2023-02-14T08:13:56.791Z,36.28
2023-02-14T08:15:18.250Z,34.15
2023-02-14T08:16:19.720Z,33.85
2023-02-14T08:17:21.184Z,35.60
2023-02-14T08:18:23.240Z,35.58
2023-02-14T08:19:24.714Z,34.70
2023-02-14T08:20:26.337Z,38.15
2023-02-14T08:21:28.244Z,37.30
2023-02-14T08:22:29.682Z,38.55
2023-02-14T08:23:31.772Z,40.20
2023-02-14T08:24:33.229Z,38.47
2023-02-14T08:25:34.758Z,36.90
2023-02-14T08:26:36.574Z,35.88
2023-02-14T08:27:37.989Z,37.67
2023-02-14T08:28:39.408Z,38.83
2023-02-14T08:29:40.825Z,39.22
2023-02-14T08:30:44.381Z,38.00
2023-02-14T08:31:47.472Z,41.35
2023-02-14T08:32:49.168Z,40.65
2023-02-14T08:33:50.657Z,36.33
2023-02-14T08:34:52.400Z,37.75
2023-02-14T08:35:53.978Z,40.13
2023-02-14T08:36:55.491Z,36.25
2023-02-14T08:37:56.978Z,39.10
2023-02-14T08:38:58.547Z,38.08
2023-02-14T08:40:00.063Z,37.00
2023-02-14T08:41:04.402Z,34.28
2023-02-14T08:42:07.294Z,37.85
2023-02-14T08:43:09.689Z,36.35
2023-02-14T08:44:11.543Z,35.13
2023-02-14T08:45:12.980Z,39.40
2023-02-14T08:46:15.102Z,35.75
2023-02-14T08:47:16.539Z,38.30
2023-02-14T08:48:18.018Z,38.00
2023-02-14T08:49:19.398Z,42.08
2023-02-14T08:50:21.525Z,38.78
2023-02-14T08:51:23.894Z,37.67
2023-02-14T08:52:25.354Z,38.15
2023-02-14T08:53:26.776Z,37.42
2023-02-14T08:54:28.155Z,36.60
2023-02-14T08:55:29.914Z,38.28
2023-02-14T08:56:31.373Z,35.47
2023-02-14T08:57:33.090Z,35.33
2023-02-14T08:58:38.670Z,36.17
2023-02-14T08:59:40.084Z,38.83
2023-02-14T09:00:41.585Z,33.97
2023-02-14T09:01:43.080Z,37.15
2023-02-14T09:02:44.489Z,38.20
2023-02-14T09:03:45.988Z,37.58
2023-02-14T09:04:47.465Z,39.63
2023-02-14T09:05:48.890Z,35.80
2023-02-14T09:06:50.628Z,39.13
2023-02-14T09:07:52.838Z,36.97
2023-02-14T09:08:55.235Z,39.58
2023-02-14T09:09:56.815Z,36.22
2023-02-14T09:10:58.821Z,38.15
2023-02-14T09:12:04.820Z,35.85
2023-02-14T09:13:06.286Z,39.05
2023-02-14T09:14:07.813Z,42.38
2023-02-14T09:15:11.292Z,38.50
2023-02-14T09:16:16.510Z,36.45
2023-02-14T09:17:18.273Z,40.58
2023-02-14T09:18:19.724Z,38.15
2023-02-14T09:19:21.221Z,40.35
2023-02-14T09:20:23.282Z,37.20
2023-02-14T09:21:27.124Z,37.47
2023-02-14T09:22:28.620Z,39.20
2023-02-14T09:23:30.056Z,40.30
2023-02-14T09:24:33.749Z,37.90
2023-02-14T09:25:35.172Z,35.63
2023-02-14T09:26:38.854Z,41.78
2023-02-14T09:27:40.382Z,37.72
2023-02-14T09:28:42.251Z,37.35
2023-02-14T09:29:44.008Z,36.97
2023-02-14T09:30:45.535Z,39.35
2023-02-14T09:31:47.122Z,38.00
2023-02-14T09:32:50.788Z,37.33
2023-02-14T09:34:10.893Z,38.97
2023-02-14T09:35:12.838Z,38.80
2023-02-14T09:36:14.410Z,36.53
2023-02-14T09:37:34.105Z,37.42
2023-02-14T09:38:35.580Z,39.58
2023-02-14T09:39:37.603Z,37.83
2023-02-14T09:40:39.184Z,40.28
2023-02-14T09:41:52.262Z,38.70
2023-02-14T09:43:02.797Z,38.42
2023-02-14T09:44:24.936Z,36.72
2023-02-14T09:45:29.035Z,35.80
2023-02-14T09:46:37.411Z,37.85
2023-02-14T09:47:47.517Z,35.20
2023-02-14T09:48:49.794Z,33.53
2023-02-14T09:49:53.388Z,33.78
2023-02-14T09:51:00.246Z,37.17
2023-02-14T09:52:04.463Z,36.33
2023-02-14T09:53:55.349Z,34.83
2023-02-14T09:55:01.310Z,34.88
2023-02-14T09:56:25.005Z,38.20
2023-02-14T09:57:42.828Z,39.03
2023-02-14T09:58:53.713Z,36.28
2023-02-14T10:00:12.716Z,35.85
2023-02-14T10:01:29.059Z,35.90
2023-02-14T10:02:53.620Z,34.10
2023-02-14T10:04:11.556Z,32.25
2023-02-14T10:05:38.586Z,32.70
2023-02-14T10:06:51.454Z,33.58
2023-02-14T10:08:00.469Z,33.45
2023-02-14T10:09:17.064Z,34.75
2023-02-14T10:10:40.243Z,30.98
2023-02-14T10:11:45.477Z,35.00
2023-02-14T10:13:01.839Z,33.67
2023-02-14T10:14:16.080Z,34.63
2023-02-14T10:15:23.721Z,34.05
2023-02-14T10:16:43.125Z,35.08
2023-02-14T10:17:54.701Z,36.30
2023-02-14T10:19:03.166Z,35.97
2023-02-14T10:20:16.678Z,33.72
2023-02-14T10:21:32.487Z,36.30
2023-02-14T10:22:50.382Z,31.27
2023-02-14T10:24:01.918Z,34.08
2023-02-14T10:25:13.481Z,33.33
2023-02-14T10:26:22.732Z,31.42
2023-02-14T10:28:32.270Z,32.90
2023-02-14T10:29:33.670Z,33.78
2023-02-14T10:30:39.688Z,32.90
2023-02-14T10:31:44.461Z,37.80
2023-02-14T10:33:11.174Z,33.75
2023-02-14T10:34:28.164Z,32.47
2023-02-14T10:35:43.470Z,31.58
2023-02-14T10:37:02.847Z,34.42
2023-02-14T10:38:30.539Z,36.08
2023-02-14T10:41:20.732Z,33.78
2023-02-14T10:42:57.004Z,38.90
2023-02-14T10:44:13.593Z,33.05
2023-02-14T10:45:49.396Z,34.92
2023-02-14T10:46:53.598Z,35.60
2023-02-14T10:48:32.586Z,38.67
2023-02-14T10:49:47.416Z,34.85
2023-02-14T10:50:58.988Z,35.53
2023-02-14T10:52:08.090Z,38.13
2023-02-14T10:53:37.412Z,31.60
2023-02-14T10:54:43.029Z,36.13
2023-02-14T10:55:54.943Z,36.78
2023-02-14T10:57:04.551Z,32.22
2023-02-14T10:58:09.028Z,33.13
2023-02-14T10:59:45.937Z,32.95
2023-02-14T11:00:59.824Z,31.92
2023-02-14T11:02:02.084Z,29.77
2023-02-14T11:03:08.089Z,29.75
2023-02-14T11:04:12.718Z,32.50
2023-02-14T11:05:31.415Z,31.42
2023-02-14T11:06:33.385Z,31.95
2023-02-14T11:07:34.856Z,30.77
2023-02-14T11:08:41.512Z,34.85
2023-02-14T11:09:43.673Z,31.92
2023-02-14T11:10:45.747Z,30.77
2023-02-14T11:12:00.263Z,29.92
2023-02-14T11:13:01.747Z,32.38
2023-02-14T11:14:22.034Z,30.58
2023-02-14T11:15:34.019Z,33.65
2023-02-14T11:16:37.369Z,31.08
2023-02-14T11:17:39.023Z,31.63
2023-02-14T11:18:41.249Z,29.50
2023-02-14T11:19:55.515Z,29.50
2023-02-14T11:21:02.721Z,28.63
2023-02-14T11:22:04.750Z,26.42
2023-02-14T11:23:20.423Z,28.70
2023-02-14T11:24:28.048Z,30.75
2023-02-14T11:25:31.746Z,29.15
2023-02-14T11:26:35.128Z,29.73
2023-02-14T11:27:37.880Z,29.30
2023-02-14T11:28:49.451Z,30.20
2023-02-14T11:29:53.746Z,29.95
2023-02-14T11:30:55.447Z,29.10
2023-02-14T11:32:06.838Z,30.02
2023-02-14T11:33:22.397Z,25.67
2023-02-14T11:34:30.240Z,27.45
2023-02-14T11:35:35.491Z,29.05
2023-02-14T11:36:42.160Z,27.05
2023-02-14T11:37:50.460Z,31.23
2023-02-14T11:39:32.118Z,30.73
2023-02-14T11:40:36.645Z,26.38
2023-02-14T11:41:49.837Z,27.58
2023-02-14T11:42:54.665Z,28.80
2023-02-14T11:44:16.029Z,27.02
2023-02-14T11:45:38.433Z,27.50
2023-02-14T11:46:53.086Z,25.05
2023-02-14T11:48:36.585Z,28.23
2023-02-14T11:49:39.046Z,25.98
2023-02-14T11:50:42.568Z,27.10
2023-02-14T11:51:45.425Z,27.08
2023-02-14T11:52:53.122Z,24.90
2023-02-14T11:54:00.566Z,24.88
2023-02-14T11:55:02.123Z,27.33
2023-02-14T11:56:03.864Z,27.42
2023-02-14T11:57:08.080Z,24.42
2023-02-14T11:58:27.861Z,27.48
2023-02-14T11:59:32.526Z,26.70
2023-02-14T12:00:35.116Z,26.70
2023-02-14T12:01:40.812Z,22.90
2023-02-14T12:02:51.605Z,27.23
2023-02-14T12:03:56.178Z,24.92
2023-02-14T12:05:01.705Z,23.63
2023-02-14T12:06:03.300Z,24.60
2023-02-14T12:07:18.954Z,26.42
2023-02-14T12:08:26.688Z,26.90
2023-02-14T12:09:30.615Z,27.10
2023-02-14T12:10:35.163Z,27.95
2023-02-14T12:11:37.725Z,26.67
2023-02-14T12:12:56.337Z,28.20
2023-02-14T12:13:58.271Z,25.05
2023-02-14T12:15:23.995Z,28.67
2023-02-14T12:16:34.638Z,26.48
2023-02-14T12:17:39.080Z,25.55
2023-02-14T12:18:47.146Z,27.30
2023-02-14T12:20:09.483Z,25.15
2023-02-14T12:21:25.983Z,24.35
2023-02-14T12:22:36.413Z,25.67
2023-02-14T12:23:49.189Z,24.50
2023-02-14T12:24:54.081Z,24.40
2023-02-14T12:26:41.461Z,26.30
2023-02-14T12:27:53.416Z,23.90
2023-02-14T12:29:20.592Z,23.40
2023-02-14T12:30:24.033Z,23.88
2023-02-14T12:31:25.632Z,26.63
2023-02-14T12:32:29.623Z,22.92
2023-02-14T12:33:31.214Z,27.35
2023-02-14T12:34:33.870Z,21.83
2023-02-14T12:35:54.797Z,23.10
2023-02-14T12:37:26.109Z,21.52
2023-02-14T12:38:57.767Z,25.17
2023-02-14T12:40:05.516Z,23.92
2023-02-14T12:41:09.882Z,25.98
2023-02-14T12:42:45.334Z,22.73
2023-02-14T12:43:57.383Z,26.50
2023-02-14T12:45:04.032Z,23.35
2023-02-14T12:46:29.634Z,21.90
2023-02-14T12:47:49.958Z,23.38
2023-02-14T12:49:24.839Z,23.10
2023-02-14T12:50:52.992Z,22.48
2023-02-14T12:52:09.790Z,21.23
2023-02-14T12:53:38.008Z,23.08
2023-02-14T12:54:39.575Z,23.13
2023-02-14T12:55:56.266Z,22.15
2023-02-14T12:57:11.824Z,23.52
2023-02-14T12:58:27.045Z,23.02
2023-02-14T12:59:40.897Z,22.70
2023-02-14T13:00:48.116Z,20.30
2023-02-14T13:02:24.399Z,21.77
2023-02-14T13:03:25.796Z,22.92
2023-02-14T13:04:46.498Z,20.70
2023-02-14T13:06:28.255Z,21.50
2023-02-14T13:07:43.416Z,21.60
2023-02-14T13:09:05.038Z,20.23
2023-02-14T13:10:25.398Z,22.77
2023-02-14T13:11:46.782Z,21.05
2023-02-14T13:13:02.078Z,19.83
2023-02-14T13:15:48.109Z,19.35
2023-02-14T13:16:55.173Z,21.52
2023-02-14T13:18:38.823Z,20.60
2023-02-14T13:20:11.124Z,21.35
2023-02-14T13:21:17.703Z,18.77
2023-02-14T13:22:22.149Z,20.73
2023-02-14T13:23:40.463Z,21.50
2023-02-14T13:24:48.236Z,21.85
2023-02-14T13:25:56.950Z,21.20
2023-02-14T13:27:05.765Z,22.35
2023-02-14T13:28:13.028Z,21.50
2023-02-14T13:29:19.444Z,20.67
2023-02-14T13:30:32.314Z,21.52
2023-02-14T13:31:34.133Z,20.27
2023-02-14T13:32:40.509Z,22.42
2023-02-14T13:33:48.815Z,20.27
2023-02-14T13:34:50.743Z,21.70
2023-02-14T13:35:56.032Z,20.60
2023-02-14T13:36:59.434Z,20.98
2023-02-14T13:38:06.172Z,21.35
2023-02-14T13:39:12.282Z,21.45
2023-02-14T13:40:20.632Z,18.52
2023-02-14T13:41:24.107Z,18.67
2023-02-14T13:42:50.696Z,17.38
2023-02-14T13:43:58.086Z,18.45
2023-02-14T13:44:59.543Z,21.67
2023-02-14T13:46:01.046Z,19.60
2023-02-14T13:47:02.535Z,21.05
2023-02-14T13:48:12.650Z,20.77
2023-02-14T13:49:34.733Z,20.48
2023-02-14T13:50:40.035Z,19.35
2023-02-14T13:51:50.275Z,20.92
2023-02-14T13:52:51.798Z,21.10
2023-02-14T13:53:53.270Z,21.13
2023-02-14T13:55:03.256Z,16.48
2023-02-14T13:56:25.427Z,20.35
2023-02-14T13:57:36.667Z,20.38
2023-02-14T13:58:59.916Z,20.52
2023-02-14T14:00:19.610Z,18.42
2023-02-14T14:01:37.891Z,17.60
2023-02-14T14:02:56.019Z,19.00
2023-02-14T14:04:03.953Z,20.10
2023-02-14T14:05:30.620Z,19.98
2023-02-14T14:07:03.995Z,19.42
2023-02-14T14:08:20.596Z,18.55
2023-02-14T14:09:42.032Z,17.63
2023-02-14T14:11:52.968Z,19.52
2023-02-14T14:12:54.408Z,20.73
2023-02-14T14:14:23.294Z,18.45
2023-02-14T14:15:24.910Z,19.67
2023-02-14T14:16:33.648Z,19.15
2023-02-14T14:17:42.870Z,20.10
2023-02-14T14:20:49.087Z,19.08
2023-02-14T14:22:09.977Z,20.25
2023-02-14T14:23:33.407Z,19.33
2023-02-14T14:24:51.009Z,18.80
2023-02-14T14:25:52.508Z,17.38
2023-02-14T14:27:06.203Z,16.77
2023-02-14T14:28:23.117Z,41.25
2023-02-14T14:29:35.070Z,22.20
2023-02-14T14:30:36.951Z,31.92
2023-02-14T14:31:41.090Z,29.35
2023-02-14T14:32:43.399Z,31.75
2023-02-14T14:33:44.933Z,22.60
2023-02-14T14:34:58.505Z,17.70
2023-02-14T14:36:07.790Z,17.05